Terminal Aerodrome Forecast
Issued by NWS Cleveland, OH

Home | Current Version | Previous Version | Graphics & Text | Print | Product List | Glossary On
Versions: 1 2 3 4 5 6 7 8 9 10 11 12 13 14 15 16 17 18 19
000
FTUS41 KCLE 151943 AAB
TAFYNG
TAF AMD
KYNG 151943Z 1520/1618 16009KT 1 1/2SM -SN BKN015 OVC035
      TEMPO 1520/1524 3/4SM -SN VV009
     FM160800 22006KT P6SM OVC010=

USA.gov is the U.S. government's official web portal to all federal, state and local government web resources and services.